Date,TemperatureHighF,TemperatureAvgF,TemperatureLowF,DewpointHighF,DewpointAvgF,DewpointLowF,HumidityHigh,HumidityAvg,HumidityLow,PressureMaxIn,PressureMinIn,WindSpeedMaxMPH,WindSpeedAvgMPH,GustSpeedMaxMPH,PrecipitationSumIn
2013-1-1,71.8,60.5,49.8,66.1,59.5,49.8,100,97,78,30.10,29.89,22,9,22,0.35
2013-1-2,50.0,45.5,40.6,49.8,43.6,40.6,100,93,79,30.25,30.07,21,8,21,0.08
2013-1-3,52.2,44.0,38.8,41.2,32.6,29.2,100,66,43,30.38,30.21,20,9,20,0.00
2013-1-4,57.0,47.6,37.8,32.5,28.6,22.9,70,49,28,30.45,30.32,16,7,16,0.00
2013-1-5,53.8,49.2,45.1,48.4,35.0,29.7,100,59,42,30.34,30.20,16,8,16,0.04
2013-1-6,52.5,48.4,45.9,50.7,47.0,42.5,100,95,80,30.28,30.16,19,8,19,0.83
2013-1-7,56.7,49.4,40.6,44.2,40.1,35.5,100,72,48,30.31,30.15,18,8,18,0.00
2013-1-8,62.2,56.4,51.1,61.9,52.2,39.6,100,87,61,30.19,30.05,24,10,24,5.12
2013-1-9,66.2,62.8,60.4,66.2,62.8,60.4,100,100,100,30.15,30.06,21,9,24,2.64
2013-1-10,72.7,66.8,63.9,72.7,66.8,63.7,100,100,100,30.14,29.96,32,10,32,2.36
2013-1-11,72.0,67.8,63.5,72.0,67.8,63.3,100,100,100,30.08,29.97,15,7,15,0.71
2013-1-12,78.3,72.8,69.8,72.7,70.0,65.0,100,92,66,30.01,29.87,28,10,28,0.00
2013-1-13,77.2,64.8,48.6,73.8,64.1,48.6,100,98,76,30.08,29.81,32,11,32,1.06
2013-1-14,49.3,45.0,38.8,49.0,45.0,38.8,100,100,96,30.14,30.03,27,10,27,1.81
2013-1-15,46.9,43.6,40.1,46.9,43.6,39.9,100,100,100,30.08,29.94,20,8,20,0.04
2013-1-16,40.1,37.8,36.7,39.9,37.8,36.7,100,100,98,30.17,30.00,21,9,21,0.04
2013-1-17,53.8,44.9,37.4,39.2,34.4,27.2,100,69,41,30.42,30.16,22,8,22,0.00
2013-1-18,56.5,48.0,39.9,39.8,35.5,26.7,85,63,35,30.51,30.37,21,7,21,0.00
2013-1-19,65.8,54.2,44.2,48.5,43.1,38.3,99,68,46,30.37,30.22,13,5,13,0.00
2013-1-20,66.4,56.7,47.1,48.9,41.1,30.9,98,60,28,30.26,30.12,12,4,12,0.00
2013-2-19,66.6,60.1,50.5,43.2,29.6,22.3,56,33,20,30.24,20.15,23,9,23,0.24
2013-2-20,57.0,51.2,43.9,33.9,27.7,21.6,53,41,28,30.24,30.00,23,10,23,0.00
2013-2-21,73.4,64.4,54.5,72.9,57.3,32.2,100,80,42,30.01,29.74,29,13,29,0.43
2013-2-22,72.3,64.2,55.2,72.3,55.7,44.8,100,76,43,29.98,29.84,17,8,17,0.91
2013-2-23,60.8,57.1,54.5,55.8,53.9,51.8,100,89,77,29.95,29.85,16,7,16,0.00
2013-2-24,66.6,58.0,46.9,61.5,53.5,46.6,100,86,66,29.96,29.71,32,9,32,2.68
2013-2-25,67.8,63.2,58.8,67.8,60.7,36.4,100,93,43,29.74,29.39,34,11,34,1.69
2013-2-26,58.5,52.8,46.8,44.6,36.9,32.7,74,55,42,29.92,29.58,33,12,33,0.00
2013-2-27,67.5,57.8,48.6,50.3,42.6,35.3,89,59,33,30.04,29.91,21,8,21,0.00
2013-2-28,55.0,48.7,45.0,37.1,32.0,27.9,64,53,43,30.16,30.04,19,8,19,0.00
2013-3-1,57.9,50.3,44.2,35.5,31.3,25.7,66,49,30,30.16,30.06,25,9,25,0.00
2013-3-2,46.4,41.9,37.2,31.5,26.5,21.7,68,54,42,30.26,30.15,23,8,23,0.00
2013-3-3,57.0,44.9,32.5,38.7,27.4,20.4,73,52,30,30.29,30.11,17,6,17,0.00
2013-3-4,69.3,59.1,46.4,59.0,49.3,37.1,89,71,52,30.11,29.91,32,12,32,0.00
2013-3-5,73.4,65.2,54.5,63.3,50.6,30.8,97,64,29,30.20,29.89,34,10,34,0.00
2013-3-6,61.3,52.8,44.2,32.0,25.0,19.7,47,34,24,30.34,30.20,22,8,22,0.00
2013-3-7,62.1,51.9,39.6,44.8,33.4,28.6,76,51,33,30.35,30.22,19,6,19,0.00
2013-3-8,69.6,58.3,45.3,48.3,42.6,33.8,100,60,30,30.29,30.13,12,5,12,0.00
2013-3-9,70.5,63.5,54.9,61.5,55.1,44.9,90,75,60,30.14,29.91,32,11,32,0.00
2013-3-10,77.9,70.1,58.3,66.7,62.5,57.3,100,78,53,29.95,29.82,37,13,19,0.00
2013-3-11,58.1,51.4,44.2,57.6,42.6,34.8,100,75,44,30.04,29.88,29,10,29,0.43
2013-3-12,65.3,54.8,45.1,36.7,34.3,28.4,70,48,30,30.21,30.04,16,6,16,0.00
2013-3-13,67.3,58.0,49.6,41.0,28.5,15.3,59,35,16,30.40,30.21,24,8,24,0.00
2013-3-14,67.8,56.4,44.4,44.3,28.5,16.8,67,36,23,30.44,30.28,17,7,17,0.00
2013-3-15,72.7,60.9,49.5,52.3,45.3,35.1,100,62,27,30.31,30.11,23,8,23,0.00
2013-3-16,74.3,64.8,56.7,59.4,54.3,48.3,100,72,41,30.13,29.93,31,10,32,0.00
2013-3-17,77.0,68.5,61.5,69.1,62.6,55.3,100,84,49,29.95,29.79,25,10,25,0.00
2013-3-18,80.8,72.9,68.5,71.4,66.9,61.9,100,83,54,29.89,29.75,29,9,29,0.00
2013-3-19,74.5,66.8,56.3,66.9,50.5,39.0,91,58,37,30.02,29.89,22,9,22,0.00
2013-3-20,71.1,62.2,53.8,58.8,37.4,22.0,89,44,18,30.19,29.96,24,9,24,0.04
2013-3-21,66.0,57.0,47.8,44.8,33.6,23.2,64,42,28,30.05,29.83,20,9,20,0.00
2013-3-22,78.3,67.3,56.8,70.5,62.0,44.5,100,84,63,29.89,29.73,20,8,20,0.00
2013-3-23,71.2,68.4,65.5,71.2,68.4,65.3,100,100,100,29.80,29.55,18,7,18,0.00
2013-3-24,70.3,70.2,70.0,70.3,70.2,70.0,100,100,100,29.60,29.60,13,9,18,0.00
2013-3-29,57.4,51.6,48.7,54.6,51.4,-47.7,100,99,92,30.31,20.20,8,5,8,0.00
2013-4-11,76.5,61.5,54.5,76.5,58.1,52.5,100,89,75,29.85,29.66,37,10,37,3.54
2013-4-12,74.8,61.3,49.3,53.9,47.5,35.6,100,67,26,29.99,29.85,19,5,19,0.00
2013-4-13,75.6,66.4,55.8,53.4,46.1,38.8,68,50,27,30.02,29.84,22,9,22,0.00
2013-4-14,75.7,65.9,58.5,66.7,60.8,53.8,100,85,59,29.85,29.72,29,8,29,1.65
2013-4-15,78.8,71.0,64.2,77.5,70.4,64.2,100,98,85,29.95,29.80,19,7,19,0.00
2013-4-16,74.1,74.0,73.9,74.1,74.0,73.9,100,100,100,29.95,29.94,16,11,17,0.00
2013-4-18,83.5,78.2,57.9,74.2,70.9,57.7,100,79,65,29.88,29.75,31,14,31,0.31
2013-4-19,60.3,53.8,48.6,57.7,44.2,36.9,100,72,45,30.18,29.87,30,9,30,0.04
2013-4-20,68.5,57.6,44.6,46.0,40.4,30.9,96,56,30,30.26,30.10,18,7,18,0.00
2013-4-21,72.0,61.9,50.7,51.9,46.2,39.1,89,59,32,30.20,30.09,20,7,20,0.00
2013-4-22,78.1,66.5,53.8,68.5,56.7,48.0,100,74,43,30.12,29.98,19,7,19,0.00
2013-4-23,81.9,73.8,67.8,71.7,67.3,62.7,100,82,54,30.05,29.94,21,10,21,0.00
2013-4-24,72.1,66.6,58.1,72.0,65.0,55.4,100,95,81,30.18,29.96,31,10,31,1.42
2013-4-25,75.0,62.4,54.0,57.9,52.5,46.3,100,74,37,30.32,30.17,20,8,20,0.00
2013-4-26,77.0,68.2,57.7,68.4,58.0,46.9,100,71,57,30.25,30.17,18,8,18,0.00
2013-4-27,83.7,74.2,67.3,71.6,66.0,56.7,100,79,44,30.18,30.01,21,9,21,0.00
2013-4-28,79.0,70.5,64.6,73.2,68.3,62.4,100,94,63,30.05,29.91,23,7,23,0.79
2013-4-29,81.9,71.9,61.5,69.4,62.2,52.6,100,75,40,29.96,29.85,14,6,14,0.00
2013-4-30,74.5,69.6,66.2,73.6,69.1,65.9,100,98,87,29.89,29.81,22,6,22,0.55
2013-5-1,79.0,70.5,66.6,72.0,67.8,62.1,100,92,67,29.89,29.79,20,6,20,0.20
2013-5-2,77.4,69.5,65.1,72.0,66.8,62.2,100,92,63,29.94,29.85,16,6,16,0.67
2013-5-3,68.0,55.8,47.8,68.0,53.7,44.6,100,93,76,30.05,29.89,25,10,25,0.00
2013-5-4,70.5,58.3,44.4,51.0,43.9,34.8,100,64,29,30.03,29.87,22,7,22,0.00
2013-5-5,63.5,57.7,52.2,55.5,44.2,37.7,87,62,44,30.04,29.88,26,9,26,0.00
2013-5-6,74.8,62.9,50.9,58.1,49.2,43.4,100,64,38,30.06,29.93,22,7,22,0.00
2013-5-7,80.4,69.5,59.0,62.6,57.2,52.3,100,69,40,30.05,29.96,16,6,16,0.00
2013-5-8,81.9,72.0,61.5,66.6,60.9,52.5,100,72,39,30.10,30.01,17,6,17,0.00
2013-5-9,82.8,73.9,66.6,71.1,66.2,59.2,100,79,48,30.08,29.98,22,9,22,0.00
2013-5-10,73.9,68.3,64.9,73.9,68.2,64.9,100,100,93,30.07,29.84,29,9,29,3.03
2013-5-11,76.8,69.9,64.0,71.4,67.0,64.0,100,91,75,30.06,29.92,30,5,30,1.06
2013-5-12,80.1,70.7,63.5,66.8,59.2,51.8,100,70,40,30.15,30.04,16,7,16,0.00
2013-5-13,77.2,67.5,56.7,56.5,46.7,39.5,76,49,31,30.29,30.15,17,7,17,0.00
2013-5-14,82.9,71.9,61.5,61.4,54.6,42.1,92,59,27,30.27,30.14,17,6,17,0.00
2013-5-15,81.5,72.0,63.0,67.1,61.4,55.0,100,72,45,30.18,30.00,15,6,15,0.00
2013-5-16,83.7,74.7,64.6,73.6,65.0,57.1,100,75,43,30.03,29.89,20,9,20,0.00
2013-5-17,86.0,78.2,72.3,76.3,71.2,65.4,100,81,52,30.01,29.92,19,10,19,0.00
2013-5-18,86.7,79.5,74.1,76.6,71.3,65.0,100,79,51,30.05,29.96,19,9,19,0.00
2013-5-19,87.3,79.3,73.8,77.9,72.9,66.9,100,83,56,29.99,29.92,23,9,23,0.00
2013-5-20,88.5,80.6,74.3,78.1,74.0,68.4,100,83,55,29.99,29.88,21,10,21,0.04
2013-5-21,88.3,80.5,75.6,77.7,73.3,67.4,100,81,52,29.95,29.79,21,9,21,0.00
2013-5-22,78.6,73.7,66.7,77.2,72.1,66.7,100,95,78,29.98,29.85,28,6,28,1.50
2013-5-23,88.9,77.3,69.3,77.7,71.4,59.8,100,84,55,30.06,29.94,23,6,23,0.12
2013-5-24,90.0,79.0,68.5,73.2,68.8,64.7,100,73,49,30.14,30.01,16,5,16,0.00
2013-5-25,85.5,77.3,69.8,68.8,64.5,57.8,81,65,52,30.20,30.10,18,8,18,0.00
2013-5-26,83.7,77.0,70.0,71.4,66.7,61.2,100,72,51,30.16,30.08,16,7,16,0.00
2013-5-27,87.3,77.6,68.4,73.6,67.7,61.9,100,74,45,30.11,29.99,22,7,22,0.00
2013-5-28,85.5,77.9,69.8,73.8,68.6,63.5,100,75,52,30.06,29.96,19,9,19,0.00
2013-5-29,86.2,78.2,72.1,78.3,74.2,70.8,100,89,64,29.98,29.90,26,10,26,0.04
2013-5-30,86.0,80.1,74.8,78.4,75.3,71.0,100,86,64,29.97,29.89,29,10,29,0.20
2013-5-31,87.1,80.3,75.4,79.2,76.0,72.9,100,88,65,29.98,29.91,23,9,23,0.24
2013-6-1,90.0,82.0,75.7,79.0,74.6,66.8,100,80,51,29.95,29.88,17,8,17,0.00
2013-6-2,81.7,77.7,69.4,79.6,74.6,68.4,100,91,69,30.00,29.85,23,6,23,0.59
2013-6-3,91.4,81.5,73.2,77.2,72.3,65.5,100,77,46,29.92,29.82,15,5,15,0.00
2013-6-4,90.7,82.7,75.0,78.4,73.9,68.1,100,77,50,29.92,29.83,17,5,17,0.00
2013-6-5,89.6,82.1,75.6,79.5,74.8,69.3,100,80,54,29.90,29.78,18,7,18,0.00
2013-6-6,89.1,80.1,71.4,78.8,73.6,66.4,100,82,56,29.86,29.70,24,6,24,0.08
2013-6-7,85.3,77.5,71.1,74.5,70.0,66.2,100,80,54,29.89,29.78,14,6,14,0.00
2013-6-8,89.1,79.5,71.8,75.9,70.3,63.8,100,76,46,29.95,29.86,19,6,19,0.00
2013-6-9,88.5,79.0,70.9,77.9,72.5,65.0,100,83,49,29.96,29.87,21,6,21,0.28
2013-6-10,88.9,81.7,75.2,81.1,75.6,69.9,100,83,57,30.01,29.94,17,7,17,0.00
2013-6-11,92.8,84.3,78.8,82.0,75.8,67.5,100,79,46,30.08,29.98,19,6,19,0.00
2013-6-12,93.2,83.9,76.6,80.4,74.2,67.0,100,76,45,30.08,29.99,14,6,14,0.00
2013-6-13,81.7,77.6,76.5,81.0,77.5,76.5,100,100,92,30.06,30.00,10,4,10,0.00
2013-7-16,84.4,81.4,77.5,79.2,76.4,74.2,100,85,75,30.15,20.09,64,7,64,3.90
2013-7-17,118.2,82.0,76.1,79.0,73.1,63.3,100,77,44,30.20,20.10,71,6,71,3.90
2013-7-18,89.6,80.1,72.3,77.7,73.8,67.3,100,83,54,30.15,30.00,30,4,30,0.28
2013-7-19,91.8,82.0,73.6,79.2,72.5,61.4,100,77,38,30.05,29.93,14,4,14,0.00
2013-7-20,90.0,81.5,74.7,78.8,73.7,66.0,100,79,47,30.00,29.91,28,5,28,0.00
2013-7-21,82.6,78.8,72.7,79.0,76.1,72.0,100,92,74,30.09,29.96,28,9,28,1.22
2013-7-22,89.4,82.7,77.4,83.3,78.2,73.3,100,88,63,30.05,20.03,21,9,20,0.04
2013-7-23,90.5,83.4,77.5,82.8,77.2,71.2,100,84,56,30.06,29.92,21,9,21,0.00
2013-7-24,90.9,83.5,77.7,81.0,76.6,70.5,100,82,53,29.98,29.87,24,9,24,0.00
2013-7-25,90.3,82.6,75.6,79.3,74.9,71.6,100,79,57,30.03,29.91,11,4,11,0.00
2013-7-26,92.7,82.6,74.5,80.1,72.6,63.9,100,74,48,30.06,29.95,22,4,22,0.00
2013-7-27,81.1,79.7,78.8,81.1,79.7,78.8,100,100,100,29.96,29.91,14,6,14,0.00
2013-12-12,56.3,48.4,39.7,34.3,31.9,27.4,80,54,38,30.50,20.34,11,5,0,19.09
2013-12-13,61.2,51.5,37.8,58.6,43.2,27.1,93,74,56,30.34,29.92,15,7,0,0.00
2013-12-14,68.0,61.7,48.9,67.3,59.9,44.6,100,94,85,30.10,29.81,27,9,0,0.28
2013-12-15,53.2,46.2,39.9,44.6,37.8,35.1,89,73,52,30.31,30.10,21,8,0,0.00
2013-12-16,60.4,46.4,34.5,40.6,35.3,23.2,97,70,26,30.35,30.23,8,3,0,0.00
2013-12-17,64.6,50.9,36.3,45.1,40.0,34.6,100,71,34,30.35,30.23,11,3,0,0.00
2013-12-18,66.6,53.6,39.4,49.2,42.9,38.3,100,70,41,30.36,30.19,11,4,0,0.00
2013-12-19,73.0,63.4,52.9,62.1,57.0,48.8,98,81,59,30.19,29.99,17,7,0,0.00
2013-12-20,78.6,71.1,66.2,70.4,67.6,62.1,100,89,69,30.03,29.91,21,9,0,0.00
2013-12-21,79.5,74.4,66.0,74.0,71.5,64.7,99,91,73,29.91,29.70,27,14,0,0.00
2013-12-22,66.7,61.4,52.5,65.1,57.5,52.0,100,88,67,30.18,29.79,15,5,0,0.20
2013-12-23,52.5,43.9,35.2,51.8,37.5,29.9,98,79,55,30.48,30.14,19,10,0,0.00
2013-12-24,53.2,40.8,30.0,33.2,29.5,26.2,94,67,40,30.53,30.36,14,5,0,0.00
2013-12-25,51.1,42.0,32.0,32.2,27.2,24.1,76,57,37,30.40,30.29,16,4,0,0.00
2013-12-26,58.3,47.2,37.2,37.0,31.3,23.4,80,56,31,30.39,30.26,11,3,0,0.00
2013-12-27,56.8,50.1,43.7,36.7,33.6,31.0,74,54,39,30.41,30.27,11,5,0,0.00
2013-12-28,50.9,47.6,43.7,50.9,44.3,31.9,100,90,49,30.29,29.97,12,5,0,0.75
2013-12-29,64.6,51.7,43.2,48.4,43.5,35.5,100,77,38,30.12,29.98,15,4,0,0.00
2013-12-30,54.3,49.9,46.2,47.2,44.1,40.7,89,81,69,30.33,30.10,9,4,0,0.00
2013-12-31,46.4,42.9,40.8,42.7,39.2,36.5,98,87,77,30.41,30.30,13,5,0,0.20
2014-1-1,56.5,50.7,43.2,55.9,50.7,42.9,100,100,97,30.29,30.01,13,4,0,0.04
2014-1-2,57.4,51.2,37.8,57.4,27.4,-43.1,100,58,1,30.37,29.95,26,10,0,0.00